Time;durP1;ratioP1;P1;durP2;ratioP2;P2;SDS_P1;SDS_P2;PMS_P1;PMS_P2;Temp;Humidity;BMP_temperature;BMP_pressure;BME280_temperature;BME280_humidity;BME280_pressure;Samples;Min_cycle;Max_cycle;Signal;HPM_P1;HPM_P2
2023/11/30 00:01:03;;;;;;;20.73;16.95;;;-0.20;99.90;;;;;;12485195;28;20505;-76
2023/11/30 00:07:10;;;;;;;18.27;16.42;;;-0.30;99.90;;;;;;12421283;28;20062;-77
2023/11/30 00:13:11;;;;;;;19.13;17.05;;;-0.40;99.90;;;;;;12493421;28;20053;-76
2023/11/30 00:19:13;;;;;;;17.88;16.15;;;-0.30;99.90;;;;;;12481972;28;20058;-76
2023/11/30 00:25:15;;;;;;;20.05;15.80;;;-0.20;99.90;;;;;;12413428;28;20096;-76
2023/11/30 00:31:17;;;;;;;19.55;17.50;;;-0.10;99.90;;;;;;12500221;28;20129;-76
2023/11/30 00:37:19;;;;;;;18.55;16.75;;;-0.10;99.90;;;;;;12494792;28;20062;-76
2023/11/30 00:43:21;;;;;;;19.88;15.82;;;-0.10;99.90;;;;;;12490658;28;20081;-77
2023/11/30 00:49:23;;;;;;;19.35;16.90;;;-0.30;99.90;;;;;;12426764;28;20392;-76
2023/11/30 00:55:24;;;;;;;19.23;17.23;;;-0.40;99.90;;;;;;12415481;28;20074;-76
2023/11/30 01:01:26;;;;;;;24.40;15.40;;;-0.60;99.90;;;;;;12489328;28;20054;-75
2023/11/30 01:07:28;;;;;;;16.88;15.05;;;-0.80;99.90;;;;;;12429383;28;20046;-76
2023/11/30 01:13:30;;;;;;;16.13;13.98;;;-0.90;99.90;;;;;;12410487;28;20043;-76
2023/11/30 01:19:32;;;;;;;31.48;15.30;;;-0.80;99.90;;;;;;12475775;28;20100;-76
2023/11/30 01:25:34;;;;;;;19.80;14.45;;;-1.00;99.90;;;;;;12491483;28;20175;-76
2023/11/30 01:31:36;;;;;;;16.05;13.70;;;-1.30;99.90;;;;;;12482040;28;20054;-75
2023/11/30 01:37:40;;;;;;;18.48;14.63;;;-1.10;99.90;;;;;;12498086;28;20052;-77
2023/11/30 01:43:42;;;;;;;16.20;12.63;;;-1.10;99.90;;;;;;12492360;28;20058;-76
2023/11/30 01:49:44;;;;;;;17.17;13.65;;;-1.20;99.90;;;;;;12425128;28;20058;-76
2023/11/30 01:55:47;;;;;;;19.42;14.60;;;-1.30;99.90;;;;;;12426625;28;20499;-75
2023/11/30 02:01:49;;;;;;;18.70;14.18;;;-1.20;99.90;;;;;;12490582;28;20051;-76
2023/11/30 02:07:51;;;;;;;16.92;13.45;;;-1.20;99.90;;;;;;12435626;28;20059;-76
2023/11/30 02:13:54;;;;;;;16.48;12.50;;;-1.10;99.90;;;;;;12488472;28;20058;-77
2023/11/30 02:19:56;;;;;;;20.10;15.10;;;-1.00;99.90;;;;;;12503738;28;20050;-77
2023/11/30 02:25:58;;;;;;;21.27;16.83;;;-0.90;99.90;;;;;;12429726;28;20050;-76
2023/11/30 02:32:00;;;;;;;22.83;18.95;;;-0.70;99.90;;;;;;12462629;28;20046;-78
2023/11/30 02:38:02;;;;;;;24.52;19.50;;;-0.60;99.90;;;;;;12422690;28;20078;-76
2023/11/30 02:44:04;;;;;;;23.30;19.50;;;-0.50;99.90;;;;;;12491590;28;20089;-76
2023/11/30 02:50:07;;;;;;;19.35;16.75;;;-0.40;99.90;;;;;;12485944;28;20041;-76
2023/11/30 02:56:09;;;;;;;18.88;16.85;;;-0.30;99.90;;;;;;12496692;28;20085;-76
2023/11/30 03:02:11;;;;;;;18.98;16.35;;;-0.30;99.90;;;;;;12473559;28;20053;-76
2023/11/30 03:08:13;;;;;;;20.05;17.35;;;-0.20;99.90;;;;;;12470052;28;20062;-76
2023/11/30 03:14:15;;;;;;;23.17;19.45;;;-0.20;99.90;;;;;;12413931;28;20096;-76
2023/11/30 03:20:17;;;;;;;17.52;15.75;;;-0.20;99.90;;;;;;12489231;28;20495;-76
2023/11/30 03:26:19;;;;;;;20.80;17.42;;;-0.20;99.90;;;;;;12417848;28;20053;-75
2023/11/30 03:32:21;;;;;;;27.30;20.83;;;-0.10;99.90;;;;;;12436933;28;20088;-77
2023/11/30 03:38:23;;;;;;;22.00;19.85;;;-0.30;99.90;;;;;;12489591;28;20434;-76
2023/11/30 03:44:25;;;;;;;21.98;19.30;;;-0.20;99.90;;;;;;12414140;28;20046;-76
2023/11/30 03:50:27;;;;;;;23.08;20.65;;;-0.30;99.90;;;;;;12428413;28;20038;-76
2023/11/30 03:56:32;;;;;;;23.75;21.08;;;-0.30;99.90;;;;;;12418539;28;20479;-76
2023/11/30 04:02:34;;;;;;;23.83;21.45;;;-0.30;99.90;;;;;;12493081;28;20136;-76
2023/11/30 04:08:36;;;;;;;26.80;22.92;;;-0.60;99.90;;;;;;12482866;28;20054;-78
2023/11/30 04:14:38;;;;;;;22.85;20.38;;;-0.60;99.90;;;;;;12423681;28;20057;-75
2023/11/30 04:20:40;;;;;;;33.00;23.02;;;-0.70;99.90;;;;;;12489958;28;20062;-75
2023/11/30 04:26:42;;;;;;;25.73;21.30;;;-0.80;99.90;;;;;;12424536;28;20073;-76
2023/11/30 04:32:44;;;;;;;25.17;19.05;;;-0.90;99.90;;;;;;12494051;28;20475;-79
2023/11/30 04:38:46;;;;;;;21.88;18.63;;;-0.80;99.90;;;;;;12488037;28;20056;-75
2023/11/30 04:44:48;;;;;;;25.13;17.33;;;-0.70;99.90;;;;;;12498725;28;20083;-75
2023/11/30 04:50:50;;;;;;;23.50;19.17;;;-0.70;99.90;;;;;;12429882;28;20050;-78
2023/11/30 04:56:52;;;;;;;23.60;18.92;;;-0.50;99.90;;;;;;12416385;28;20412;-75
2023/11/30 05:02:55;;;;;;;21.05;17.90;;;-0.50;99.90;;;;;;12494734;28;20054;-75
2023/11/30 05:08:58;;;;;;;28.40;18.50;;;-0.30;99.90;;;;;;12424478;28;20054;-75
2023/11/30 05:15:00;;;;;;;19.35;15.60;;;-0.40;99.90;;;;;;12480226;28;20084;-76
2023/11/30 05:21:03;;;;;;;21.25;15.07;;;-0.30;99.90;;;;;;12425957;28;20079;-78
2023/11/30 05:27:05;;;;;;;24.38;17.92;;;-0.20;99.90;;;;;;12423323;28;20125;-75
2023/11/30 05:33:08;;;;;;;26.02;20.25;;;-0.30;99.90;;;;;;12491198;28;20047;-76
2023/11/30 05:39:10;;;;;;;31.73;20.52;;;-0.60;99.90;;;;;;12456774;28;20131;-76
2023/11/30 05:45:12;;;;;;;27.75;20.63;;;-0.60;99.90;;;;;;12426953;28;20114;-76
2023/11/30 05:51:14;;;;;;;28.67;20.27;;;-0.60;99.90;;;;;;12419058;28;20141;-76
2023/11/30 05:57:16;;;;;;;26.08;19.75;;;-0.60;99.90;;;;;;12515091;28;20545;-77
2023/11/30 06:03:18;;;;;;;23.45;17.77;;;-0.50;99.90;;;;;;12506276;28;20054;-76
2023/11/30 06:09:20;;;;;;;20.73;17.10;;;-0.40;99.90;;;;;;12494559;28;20049;-78
2023/11/30 06:15:22;;;;;;;29.80;20.42;;;-0.20;99.90;;;;;;12420624;28;20054;-78
2023/11/30 06:21:24;;;;;;;29.67;19.20;;;-0.20;99.90;;;;;;12415460;28;20050;-75
2023/11/30 06:27:26;;;;;;;26.20;20.33;;;-0.40;99.90;;;;;;12411925;28;20593;-77
2023/11/30 06:33:28;;;;;;;27.10;20.80;;;-0.30;99.90;;;;;;12418811;28;20098;-76
2023/11/30 06:39:30;;;;;;;28.48;21.00;;;-0.40;99.90;;;;;;12422464;28;20133;-76
2023/11/30 06:45:32;;;;;;;29.92;21.15;;;-0.50;99.90;;;;;;12486773;28;20435;-75
2023/11/30 06:51:35;;;;;;;26.30;19.88;;;-0.60;99.90;;;;;;12415946;28;20052;-82
2023/11/30 06:57:38;;;;;;;21.77;17.95;;;-0.60;99.90;;;;;;12501187;28;20062;-75
2023/11/30 07:03:40;;;;;;;19.75;16.75;;;-0.40;99.90;;;;;;12431363;28;20054;-76
2023/11/30 07:09:44;;;;;;;24.10;19.57;;;-0.30;99.90;;;;;;12458180;28;20388;-75
2023/11/30 07:15:47;;;;;;;23.50;19.40;;;-0.30;99.90;;;;;;12488709;28;20054;-75
2023/11/30 07:21:49;;;;;;;28.67;20.85;;;-0.20;99.90;;;;;;12419610;28;21514;-78
2023/11/30 07:27:54;;;;;;;30.23;23.90;;;-0.30;99.90;;;;;;12488208;28;20061;-76
2023/11/30 07:33:56;;;;;;;34.63;29.75;;;-0.40;99.90;;;;;;12419709;28;20050;-75
2023/11/30 07:40:00;;;;;;;30.27;26.85;;;-0.40;99.90;;;;;;12490779;28;20562;-75
2023/11/30 07:46:02;;;;;;;32.55;25.70;;;-0.40;99.90;;;;;;12418654;28;20096;-76
2023/11/30 07:52:04;;;;;;;25.95;21.23;;;-0.30;99.90;;;;;;12423285;28;20488;-76
2023/11/30 07:58:06;;;;;;;21.85;19.23;;;0.00;99.90;;;;;;12494139;28;20050;-75
2023/11/30 08:04:08;;;;;;;22.95;18.58;;;0.20;99.90;;;;;;12423740;28;20046;-76
2023/11/30 08:10:11;;;;;;;19.38;17.35;;;0.30;99.90;;;;;;12420979;28;20411;-75
2023/11/30 08:16:13;;;;;;;23.67;16.65;;;0.30;99.90;;;;;;12488620;28;20065;-77
2023/11/30 08:22:15;;;;;;;17.17;15.02;;;0.50;99.90;;;;;;12436962;28;20050;-77
2023/11/30 08:28:17;;;;;;;24.92;16.95;;;0.60;99.90;;;;;;12538532;28;20110;-77
2023/11/30 08:34:19;;;;;;;26.50;18.17;;;0.70;99.90;;;;;;12545965;28;20050;-79
2023/11/30 08:40:21;;;;;;;25.63;16.70;;;0.70;99.90;;;;;;12536659;28;20045;-78
2023/11/30 08:46:23;;;;;;;44.80;22.35;;;0.70;99.90;;;;;;12474144;28;20030;-78
2023/11/30 08:52:26;;;;;;;25.35;16.60;;;0.80;99.90;;;;;;12471112;28;20081;-80
2023/11/30 08:58:27;;;;;;;22.02;14.77;;;0.90;99.90;;;;;;12472205;28;20050;-78
2023/11/30 09:04:29;;;;;;;25.15;15.43;;;1.00;99.90;;;;;;12469641;28;20026;-77
2023/11/30 09:10:31;;;;;;;27.27;15.75;;;1.10;99.90;;;;;;12472704;28;20038;-76
2023/11/30 09:16:33;;;;;;;26.65;15.20;;;1.10;99.90;;;;;;12515754;28;20050;-76
2023/11/30 09:22:35;;;;;;;25.52;15.85;;;1.30;99.90;;;;;;12478745;28;20050;-78
2023/11/30 09:28:38;;;;;;;24.60;14.82;;;1.10;99.90;;;;;;12487664;28;20075;-78
2023/11/30 09:34:40;;;;;;;18.70;11.68;;;1.00;99.90;;;;;;12509279;28;20061;-76
2023/11/30 09:40:42;;;;;;;24.08;12.32;;;1.40;99.90;;;;;;12492836;28;20065;-76
2023/11/30 09:46:44;;;;;;;25.33;13.65;;;1.60;99.90;;;;;;12500624;28;20552;-77
2023/11/30 09:52:47;;;;;;;14.93;9.88;;;1.70;99.90;;;;;;12423525;28;20078;-77
2023/11/30 09:58:48;;;;;;;16.20;10.13;;;2.00;99.90;;;;;;12420396;28;20595;-77
2023/11/30 10:04:50;;;;;;;16.77;10.38;;;2.10;99.90;;;;;;12443947;28;20046;-75
2023/11/30 10:10:54;;;;;;;13.68;9.00;;;2.20;99.90;;;;;;12403680;28;20054;-76
2023/11/30 10:16:56;;;;;;;20.83;10.73;;;2.30;99.90;;;;;;12491723;28;20064;-78
2023/11/30 10:22:58;;;;;;;20.20;12.13;;;2.50;99.90;;;;;;12497381;28;20042;-75
2023/11/30 10:29:02;;;;;;;15.80;10.25;;;2.60;99.90;;;;;;12479447;28;20180;-77
2023/11/30 10:35:05;;;;;;;16.33;9.85;;;2.70;99.90;;;;;;12477637;28;20074;-75
2023/11/30 10:41:18;;;;;;;17.30;10.35;;;2.90;99.90;;;;;;12480375;28;20050;-75
2023/11/30 10:47:21;;;;;;;21.48;12.73;;;3.10;99.90;;;;;;12485629;28;20140;-76
2023/11/30 10:53:35;;;;;;;21.80;12.93;;;2.90;99.90;;;;;;12477380;28;20069;-77
2023/11/30 10:59:45;;;;;;;20.75;12.68;;;2.30;99.90;;;;;;12410496;28;20495;-76
2023/11/30 11:05:50;;;;;;;19.42;11.75;;;2.00;99.90;;;;;;12472580;28;20038;-75
2023/11/30 11:11:58;;;;;;;;;;;2.50;99.90;;;;;;12467246;28;20054;-78
2023/11/30 11:18:05;;;;;;;18.42;12.40;;;2.70;99.90;;;;;;12511888;28;19935;-75
2023/11/30 11:24:08;;;;;;;19.40;12.82;;;2.50;99.90;;;;;;12419827;28;20050;-75
2023/11/30 11:30:11;;;;;;;23.00;14.15;;;2.30;99.90;;;;;;12401197;28;20046;-76
2023/11/30 11:36:13;;;;;;;28.98;17.80;;;2.00;99.90;;;;;;12481572;28;20227;-75
2023/11/30 11:42:16;;;;;;;21.20;13.80;;;1.90;99.90;;;;;;12482714;28;20111;-76
2023/11/30 11:48:18;;;;;;;18.88;11.15;;;2.00;99.90;;;;;;12466976;28;20484;-75
2023/11/30 11:54:21;;;;;;;22.92;12.40;;;2.40;99.90;;;;;;12398715;28;20089;-75
2023/11/30 12:00:25;;;;;;;20.20;13.07;;;2.80;99.90;;;;;;12426146;28;20057;-76
2023/11/30 12:06:29;;;;;;;20.40;12.30;;;2.60;99.90;;;;;;12485012;28;20071;-75
2023/11/30 12:12:32;;;;;;;15.07;9.82;;;2.70;99.90;;;;;;12498624;28;20050;-75
2023/11/30 12:18:34;;;;;;;20.30;11.55;;;2.90;99.90;;;;;;12488194;28;20042;-81
2023/11/30 12:24:36;;;;;;;19.08;13.10;;;2.90;99.90;;;;;;12492342;28;20054;-80
2023/11/30 12:30:38;;;;;;;18.95;11.27;;;2.70;99.90;;;;;;12481380;28;20045;-81
2023/11/30 12:36:41;;;;;;;16.38;11.30;;;2.60;99.90;;;;;;12478752;28;20427;-80
2023/11/30 12:42:43;;;;;;;19.50;11.75;;;2.50;99.90;;;;;;12482229;28;20113;-81
2023/11/30 12:48:46;;;;;;;21.98;14.20;;;2.70;99.90;;;;;;12427261;28;20046;-81
2023/11/30 12:54:51;;;;;;;29.77;17.90;;;2.40;99.90;;;;;;12493495;28;20077;-81
2023/11/30 13:00:54;;;;;;;15.45;10.35;;;2.30;99.90;;;;;;12417063;28;20068;-81
2023/11/30 13:06:56;;;;;;;19.52;13.63;;;2.70;99.90;;;;;;12490530;28;20051;-81
2023/11/30 13:12:59;;;;;;;19.38;13.73;;;2.60;99.90;;;;;;12484834;28;20054;-81
2023/11/30 13:19:03;;;;;;;21.35;14.38;;;2.10;99.90;;;;;;12491826;28;20062;-80
2023/11/30 13:25:11;;;;;;;21.27;14.98;;;1.90;99.90;;;;;;12488035;28;20038;-81
2023/11/30 13:31:23;;;;;;;22.35;14.48;;;1.70;99.90;;;;;;12487498;28;20051;-81
2023/11/30 13:37:26;;;;;;;24.67;14.65;;;1.60;99.90;;;;;;12479720;28;20549;-80
2023/11/30 13:43:37;;;;;;;21.15;14.00;;;1.40;99.90;;;;;;12416138;28;20105;-81
2023/11/30 13:49:44;;;;;;;23.83;14.27;;;1.60;99.90;;;;;;12482705;28;20046;-82
2023/11/30 13:55:49;;;;;;;22.92;15.20;;;1.70;99.90;;;;;;12491010;28;20061;-81
2023/11/30 14:01:52;;;;;;;22.33;16.42;;;1.50;99.90;;;;;;12486033;28;20062;-81
2023/11/30 14:07:57;;;;;;;23.70;16.77;;;1.20;99.90;;;;;;12431467;28;20515;-81
2023/11/30 14:13:59;;;;;;;21.85;15.98;;;1.10;99.90;;;;;;12413603;28;20069;-81
2023/11/30 14:20:03;;;;;;;24.48;17.40;;;1.00;99.90;;;;;;12410459;28;20493;-82
2023/11/30 14:26:06;;;;;;;29.50;18.37;;;1.00;99.90;;;;;;12485992;28;20092;-81
2023/11/30 14:32:08;;;;;;;25.77;16.83;;;0.90;99.90;;;;;;12424133;28;20419;-80
2023/11/30 14:38:10;;;;;;;22.35;17.42;;;0.80;99.90;;;;;;12496589;28;20415;-82
2023/11/30 14:44:12;;;;;;;26.85;17.65;;;0.90;99.90;;;;;;12488234;28;20077;-81
2023/11/30 14:50:15;;;;;;;24.05;16.23;;;0.80;99.90;;;;;;12413256;28;20053;-81
2023/11/30 14:56:17;;;;;;;21.48;16.60;;;0.70;99.90;;;;;;12487156;28;20046;-82
2023/11/30 15:02:20;;;;;;;20.70;15.60;;;0.70;99.90;;;;;;12428828;28;20046;-81
2023/11/30 15:08:22;;;;;;;24.88;17.73;;;0.80;99.90;;;;;;12422107;28;20076;-82
2023/11/30 15:14:24;;;;;;;23.85;17.80;;;0.80;99.90;;;;;;12502387;28;20030;-81
2023/11/30 15:20:29;;;;;;;25.42;21.08;;;0.80;99.90;;;;;;12507413;28;20054;-82
2023/11/30 15:26:31;;;;;;;;;;;0.50;99.90;;;;;;12416889;28;20050;-82
2023/11/30 15:32:33;;;;;;;26.20;21.33;;;0.50;99.90;;;;;;12483095;28;20290;-82
2023/11/30 15:38:37;;;;;;;30.77;24.13;;;0.40;99.90;;;;;;12495797;28;20110;-81
2023/11/30 15:44:42;;;;;;;29.63;23.17;;;0.20;99.90;;;;;;12423553;28;20081;-82
2023/11/30 15:50:44;;;;;;;22.45;19.10;;;0.20;99.90;;;;;;12491436;28;20095;-79
2023/11/30 15:56:47;;;;;;;27.38;20.70;;;0.20;99.90;;;;;;12481488;28;20062;-81
2023/11/30 16:02:51;;;;;;;27.35;20.40;;;0.20;99.90;;;;;;12474941;28;20051;-81
2023/11/30 16:08:54;;;;;;;50.72;29.33;;;0.20;99.90;;;;;;12477939;28;20057;-81
2023/11/30 16:14:55;;;;;;;35.45;25.98;;;0.20;99.90;;;;;;12505087;28;20079;-82
2023/11/30 16:20:57;;;;;;;36.28;28.98;;;0.20;99.90;;;;;;12484886;28;20062;-81
2023/11/30 16:27:00;;;;;;;36.67;30.63;;;0.30;99.90;;;;;;12474768;28;20134;-82
2023/11/30 16:33:02;;;;;;;38.67;31.80;;;0.30;99.90;;;;;;12479138;28;20045;-80
2023/11/30 16:39:04;;;;;;;35.97;31.13;;;0.30;99.90;;;;;;12488110;28;20046;-81
2023/11/30 16:45:06;;;;;;;33.00;29.58;;;0.30;99.90;;;;;;12490061;28;20141;-81
2023/11/30 16:51:09;;;;;;;32.45;28.90;;;0.30;99.90;;;;;;12497768;28;20412;-81
2023/11/30 16:57:11;;;;;;;34.17;30.63;;;0.30;99.90;;;;;;12492355;28;20435;-81
2023/11/30 17:03:13;;;;;;;36.78;33.03;;;0.30;99.90;;;;;;12476518;28;20046;-81
2023/11/30 17:09:15;;;;;;;38.65;34.60;;;0.30;99.90;;;;;;12498388;28;20464;-81
2023/11/30 17:15:17;;;;;;;38.10;33.50;;;0.20;99.90;;;;;;12499136;28;20050;-81
2023/11/30 17:21:21;;;;;;;37.47;33.65;;;0.10;99.90;;;;;;12424581;28;20046;-82
2023/11/30 17:27:23;;;;;;;36.37;32.50;;;0.10;99.90;;;;;;12499250;28;20061;-81
2023/11/30 17:33:25;;;;;;;38.15;34.03;;;0.10;99.90;;;;;;12495417;28;20046;-81
2023/11/30 17:39:29;;;;;;;38.33;34.47;;;0.10;99.90;;;;;;12529308;28;20072;-81
2023/11/30 17:45:31;;;;;;;38.30;34.45;;;0.00;99.90;;;;;;12494258;28;20102;-81
2023/11/30 17:51:33;;;;;;;40.63;35.90;;;0.00;99.90;;;;;;12482325;28;20084;-81
2023/11/30 17:57:35;;;;;;;36.35;32.55;;;0.00;99.90;;;;;;12429840;28;20136;-81
2023/11/30 18:03:37;;;;;;;37.85;33.78;;;0.00;99.90;;;;;;12430848;28;20054;-81
2023/11/30 18:09:39;;;;;;;45.20;40.88;;;0.00;99.90;;;;;;12496163;28;20054;-80
2023/11/30 18:15:42;;;;;;;45.83;41.55;;;0.10;99.90;;;;;;12515872;28;20062;-80
2023/11/30 18:21:44;;;;;;;43.72;39.55;;;0.10;99.90;;;;;;12503690;28;20069;-81
2023/11/30 18:27:46;;;;;;;40.88;36.58;;;0.00;99.90;;;;;;12453613;28;20050;-81
2023/11/30 18:33:49;;;;;;;39.22;35.03;;;-0.10;99.90;;;;;;12510186;28;20404;-81
2023/11/30 18:39:51;;;;;;;37.28;32.25;;;-0.10;99.90;;;;;;12510269;28;20041;-81
2023/11/30 18:45:55;;;;;;;36.38;32.22;;;-0.20;99.90;;;;;;12536000;28;20045;-81
2023/11/30 18:51:57;;;;;;;44.47;39.83;;;-0.10;99.90;;;;;;12532025;28;20057;-80
2023/11/30 18:57:59;;;;;;;39.47;35.33;;;-0.10;99.90;;;;;;12513313;28;20038;-81
2023/11/30 19:04:01;;;;;;;37.30;33.25;;;-0.10;99.90;;;;;;12513359;28;20089;-81
2023/11/30 19:10:04;;;;;;;36.10;31.65;;;-0.10;99.90;;;;;;12488390;28;20050;-81
2023/11/30 19:16:07;;;;;;;31.65;28.65;;;0.00;99.90;;;;;;12491164;28;20093;-81
2023/11/30 19:22:09;;;;;;;43.35;37.35;;;0.10;99.90;;;;;;12416204;28;20061;-81
2023/11/30 19:28:11;;;;;;;48.33;43.63;;;0.00;99.90;;;;;;12423894;28;20050;-81
2023/11/30 19:34:14;;;;;;;43.45;38.80;;;0.00;99.90;;;;;;12404341;28;20099;-81
2023/11/30 19:40:16;;;;;;;42.13;37.78;;;0.00;99.90;;;;;;12482111;28;20574;-81
2023/11/30 19:46:19;;;;;;;42.03;37.58;;;-0.10;99.90;;;;;;12480902;28;20049;-81
2023/11/30 19:52:21;;;;;;;40.72;33.30;;;0.00;99.90;;;;;;12483148;28;20057;-81
2023/11/30 19:58:24;;;;;;;42.35;36.00;;;0.10;99.90;;;;;;12506408;28;20050;-81
2023/11/30 20:04:26;;;;;;;43.75;39.28;;;0.20;99.90;;;;;;12472331;28;20042;-81
2023/11/30 20:10:27;;;;;;;46.75;41.83;;;0.10;99.90;;;;;;12498213;27;20066;-81
2023/11/30 20:16:29;;;;;;;48.30;43.22;;;0.10;99.90;;;;;;12532577;28;20044;-80
2023/11/30 20:22:31;;;;;;;47.90;43.22;;;0.10;99.90;;;;;;12460837;28;20062;-81
2023/11/30 20:28:34;;;;;;;46.83;41.75;;;0.00;99.90;;;;;;12536318;28;20051;-81
2023/11/30 20:34:36;;;;;;;48.90;43.78;;;0.10;99.90;;;;;;12548322;28;20053;-81
2023/11/30 20:40:38;;;;;;;48.45;43.47;;;0.00;99.90;;;;;;12548006;28;20725;-79
2023/11/30 20:46:40;;;;;;;44.08;39.28;;;0.00;99.90;;;;;;12536382;28;20060;-81
2023/11/30 20:52:42;;;;;;;45.80;40.95;;;0.00;99.90;;;;;;12543465;28;20546;-81
2023/11/30 20:58:46;;;;;;;43.80;38.92;;;0.10;99.90;;;;;;12520546;28;20454;-81
2023/11/30 21:04:48;;;;;;;47.55;42.40;;;0.00;99.90;;;;;;12476835;28;20058;-79
2023/11/30 21:10:51;;;;;;;49.83;42.92;;;-0.10;99.90;;;;;;12507464;28;20515;-81
2023/11/30 21:16:53;;;;;;;43.88;39.72;;;-0.10;99.90;;;;;;12490384;28;20050;-81
2023/11/30 21:22:56;;;;;;;47.85;43.03;;;-0.10;99.90;;;;;;12514032;28;20054;-81
2023/11/30 21:28:59;;;;;;;47.45;42.45;;;-0.20;99.90;;;;;;12459440;28;20074;-81
2023/11/30 21:35:00;;;;;;;42.50;37.33;;;-0.20;99.90;;;;;;12468265;28;20030;-81
2023/11/30 21:41:03;;;;;;;41.80;37.40;;;-0.20;99.90;;;;;;12532628;28;20053;-79
2023/11/30 21:47:05;;;;;;;42.20;37.67;;;-0.10;99.90;;;;;;12555362;28;20030;-81
2023/11/30 21:53:07;;;;;;;47.97;42.97;;;-0.10;99.90;;;;;;12463590;28;20043;-81
2023/11/30 21:59:09;;;;;;;48.10;43.05;;;-0.20;99.90;;;;;;12481689;28;20046;-80
2023/11/30 22:05:12;;;;;;;48.40;43.40;;;-0.10;99.90;;;;;;12539061;28;20099;-80
2023/11/30 22:11:27;;;;;;;50.75;45.60;;;-0.10;99.90;;;;;;12481169;28;20118;-81
2023/11/30 22:17:30;;;;;;;43.70;39.50;;;-0.20;99.90;;;;;;12522345;28;20141;-82
2023/11/30 22:23:32;;;;;;;50.17;40.55;;;-0.20;99.90;;;;;;12417128;28;20053;-80
2023/11/30 22:29:34;;;;;;;41.33;37.08;;;-0.10;99.90;;;;;;12482879;28;20046;-82
2023/11/30 22:35:36;;;;;;;46.72;38.95;;;0.00;99.90;;;;;;12489154;28;20050;-82
2023/11/30 22:41:38;;;;;;;42.80;38.25;;;0.00;99.90;;;;;;12483699;28;20383;-82
2023/11/30 22:47:40;;;;;;;46.53;39.03;;;0.00;99.90;;;;;;12417480;28;20050;-82
2023/11/30 22:53:42;;;;;;;40.38;36.17;;;0.00;99.90;;;;;;12486034;28;20058;-82
2023/11/30 22:59:44;;;;;;;39.33;35.17;;;0.00;99.90;;;;;;12492129;28;20050;-82
2023/11/30 23:05:47;;;;;;;46.33;36.35;;;0.10;99.90;;;;;;12435007;28;20135;-82
2023/11/30 23:11:49;;;;;;;41.83;34.40;;;0.00;99.90;;;;;;12631250;28;20063;-82
2023/11/30 23:17:51;;;;;;;35.92;30.58;;;0.00;99.90;;;;;;12617485;28;20055;-82
2023/11/30 23:23:54;;;;;;;46.50;33.35;;;0.00;99.90;;;;;;12617327;28;20044;-81
2023/11/30 23:29:55;;;;;;;41.40;32.83;;;0.00;99.90;;;;;;12619699;28;20068;-81
2023/11/30 23:35:57;;;;;;;43.42;33.72;;;0.10;99.90;;;;;;12625703;28;20059;-81
2023/11/30 23:41:59;;;;;;;46.03;33.75;;;0.10;99.90;;;;;;12615438;28;20085;-82
2023/11/30 23:48:01;;;;;;;41.78;32.58;;;0.10;99.90;;;;;;12627026;28;20045;-82
2023/11/30 23:54:03;;;;;;;45.55;37.63;;;0.10;99.90;;;;;;12624782;28;20073;-82
